Airport ID:KTSP
Update Time (UTC):18 FEB 20 18:09
Wind Speed (Knots):
Wind Direction (Magnetic):
Temperature (°C):13
Dew Point (°C):-9
Humidity (%):21
Altimeter (inHg):
Density Altitude (Feet):
Visibility (Miles):10
Clouds (Hundreds of feet):
Present Weather:NO PRECIPITATION
METAR:METAR KTSP 181805Z AUTO 10010G16KT 10SM CLR 13/M09 A3011 RMK AO2

The data displayed is for advisory purposes only and is not to be used for flight planning or operations.

This page is not automatically refreshed. Reload the page to see current data.